createdAt,value
2019-02-02T00:02:28.480Z,97.20
2019-02-02T00:05:18.182Z,97.70
2019-02-02T00:08:08.030Z,98.00
2019-02-02T00:10:57.682Z,98.10
2019-02-02T00:13:27.928Z,98.10
2019-02-02T00:16:18.105Z,97.70
2019-02-02T00:18:48.445Z,97.80
2019-02-02T00:21:38.533Z,97.70
2019-02-02T00:24:09.118Z,97.50
2019-02-02T00:29:39.499Z,97.60
2019-02-02T00:32:09.769Z,97.50
2019-02-02T00:34:39.919Z,97.60
2019-02-02T00:37:10.281Z,97.80
2019-02-02T00:39:40.727Z,97.80
2019-02-02T00:42:10.914Z,97.80
2019-02-02T00:44:41.581Z,97.90
2019-02-02T00:47:12.480Z,97.50
2019-02-02T00:49:42.303Z,97.70
2019-02-02T00:52:32.278Z,97.70
2019-02-02T00:55:22.066Z,98.00
2019-02-02T00:58:12.242Z,98.20
2019-02-02T01:00:42.354Z,98.30
2019-02-02T01:03:12.499Z,98.40
2019-02-02T01:06:04.812Z,98.70
2019-02-02T01:09:19.166Z,98.80
2019-02-02T01:12:08.530Z,98.80
2019-02-02T01:14:57.853Z,99.10
2019-02-02T01:17:27.801Z,99.10
2019-02-02T01:20:17.417Z,99.30
2019-02-02T01:23:06.967Z,99.30
2019-02-02T01:25:56.282Z,99.40
2019-02-02T01:31:35.161Z,99.10
2019-02-02T01:34:18.109Z,99.40
2019-02-02T01:36:48.015Z,99.30
2019-02-02T01:39:17.912Z,99.30
2019-02-02T01:41:47.817Z,99.30
2019-02-02T01:44:17.716Z,99.20
2019-02-02T01:46:47.643Z,99.10
2019-02-02T01:49:17.604Z,99.10
2019-02-02T01:51:47.394Z,99.10
2019-02-02T01:54:17.253Z,99.20
2019-02-02T01:56:47.667Z,98.80
2019-02-02T01:59:17.545Z,98.80
2019-02-02T02:01:47.517Z,99.00
2019-02-02T02:04:17.545Z,99.10
2019-02-02T02:06:47.433Z,99.10
2019-02-02T02:09:17.357Z,99.30
2019-02-02T02:11:47.219Z,99.30
2019-02-02T02:14:17.090Z,99.30
2019-02-02T02:17:06.403Z,99.30
2019-02-02T02:19:36.282Z,99.40
2019-02-02T02:22:25.608Z,99.30
2019-02-02T02:24:55.490Z,98.90
2019-02-02T02:27:25.377Z,98.70
2019-02-02T02:29:55.207Z,98.10
2019-02-02T02:32:25.046Z,98.10
2019-02-02T02:35:08.596Z,97.80
2019-02-02T02:37:58.276Z,97.70
2019-02-02T02:40:28.308Z,97.60
2019-02-02T02:43:17.668Z,97.60
2019-02-02T02:45:47.982Z,97.40
2019-02-02T02:48:18.050Z,97.10
2019-02-02T02:50:48.383Z,97.30
2019-02-02T02:53:39.134Z,97.40
2019-02-02T02:56:28.660Z,97.40
2019-02-02T02:58:59.070Z,97.40
2019-02-02T03:01:51.246Z,97.20
2019-02-02T03:04:41.128Z,97.40
2019-02-02T03:07:30.971Z,97.40
2019-02-02T03:10:22.338Z,97.10
2019-02-02T03:13:11.956Z,97.10
2019-02-02T03:16:01.641Z,96.80
2019-02-02T03:18:53.659Z,96.70
2019-02-02T03:21:43.935Z,96.80
2019-02-02T03:24:52.678Z,96.90
2019-02-02T03:27:42.871Z,97.00
2019-02-02T03:30:15.925Z,97.10
2019-02-02T03:32:46.039Z,97.30
2019-02-02T03:35:20.084Z,97.70
2019-02-02T03:37:50.784Z,97.50
2019-02-02T03:40:22.295Z,97.40
2019-02-02T03:43:12.059Z,97.30
2019-02-02T03:46:01.897Z,97.20
2019-02-02T03:49:10.993Z,97.30
2019-02-02T03:51:40.975Z,97.40
2019-02-02T03:54:31.061Z,97.20
2019-02-02T03:57:20.631Z,96.90
2019-02-02T03:59:52.243Z,96.80
2019-02-02T04:02:22.126Z,96.50
2019-02-02T04:04:56.518Z,96.50
2019-02-02T04:07:26.517Z,96.60
2019-02-02T04:09:56.426Z,96.70
2019-02-02T04:12:45.735Z,96.90
2019-02-02T04:15:16.129Z,96.50
2019-02-02T04:17:46.116Z,96.70
2019-02-02T04:20:19.201Z,96.90
2019-02-02T04:22:51.116Z,97.10
2019-02-02T04:25:22.299Z,97.30
2019-02-02T04:28:11.928Z,97.40
2019-02-02T04:31:01.337Z,97.80
2019-02-02T04:33:39.273Z,97.50
2019-02-02T04:36:09.348Z,97.50
2019-02-02T04:38:39.199Z,97.40
2019-02-02T04:41:27.889Z,97.40
2019-02-02T04:44:03.803Z,97.40
2019-02-02T04:46:53.465Z,97.50
2019-02-02T04:50:38.405Z,97.60
2019-02-02T04:56:13.174Z,97.50
2019-02-02T05:02:08.160Z,97.50
2019-02-02T05:04:41.124Z,97.90
2019-02-02T05:07:12.893Z,97.80
2019-02-02T05:09:43.517Z,97.80
2019-02-02T05:12:13.576Z,97.80
2019-02-02T05:14:49.341Z,97.80
2019-02-02T05:17:22.338Z,97.60
2019-02-02T05:19:52.714Z,97.60
2019-02-02T05:26:48.440Z,97.40
2019-02-02T05:29:41.618Z,96.80
2019-02-02T05:33:04.932Z,96.90
2019-02-02T05:34:56.203Z,96.90
2019-02-02T05:37:26.460Z,97.00
2019-02-02T05:39:56.681Z,97.00
2019-02-02T05:42:26.854Z,96.90
2019-02-02T05:44:57.700Z,96.80
2019-02-02T05:47:36.866Z,96.70
2019-02-02T05:50:25.687Z,96.60
2019-02-02T05:55:37.487Z,96.70
2019-02-02T05:58:07.602Z,96.90
2019-02-02T06:00:45.742Z,96.90
2019-02-02T06:03:15.885Z,96.90
2019-02-02T06:05:46.971Z,97.00
2019-02-02T06:08:19.956Z,97.00
2019-02-02T06:10:49.874Z,96.50
2019-02-02T06:13:20.326Z,96.40
2019-02-02T06:16:20.390Z,96.60
2019-02-02T06:19:08.390Z,96.60
2019-02-02T06:24:42.371Z,96.80
2019-02-02T06:26:07.823Z,96.80
2019-02-02T06:27:15.845Z,96.80
2019-02-02T06:30:09.865Z,96.70
2019-02-02T06:32:46.902Z,96.40
2019-02-02T06:35:28.082Z,96.30
2019-02-02T06:38:14.769Z,96.10
2019-02-02T06:40:40.357Z,96.00
2019-02-02T06:43:39.808Z,95.80
2019-02-02T06:46:30.348Z,95.80
2019-02-02T06:49:17.939Z,95.80
2019-02-02T06:51:57.703Z,95.80
2019-02-02T06:54:37.555Z,95.90
2019-02-02T06:57:11.346Z,96.00
2019-02-02T06:59:42.149Z,96.10
2019-02-02T07:02:26.518Z,96.20
2019-02-02T07:07:58.145Z,96.30
2019-02-02T07:10:28.357Z,96.10
2019-02-02T07:13:01.026Z,96.00
2019-02-02T07:15:31.371Z,96.00
2019-02-02T07:18:03.361Z,95.90
2019-02-02T07:20:39.116Z,95.90
2019-02-02T07:23:12.967Z,95.80
2019-02-02T07:25:48.698Z,95.70
2019-02-02T07:28:21.835Z,95.80
2019-02-02T07:30:52.045Z,95.80
2019-02-02T07:33:42.426Z,95.90
2019-02-02T07:36:20.508Z,95.80
2019-02-02T07:38:52.370Z,95.80
2019-02-02T07:41:22.423Z,95.50
2019-02-02T07:43:52.945Z,95.80
2019-02-02T07:46:22.907Z,95.80
2019-02-02T07:48:52.773Z,95.80
2019-02-02T07:51:22.615Z,95.90
2019-02-02T07:53:52.637Z,95.90
2019-02-02T07:56:28.379Z,95.90
2019-02-02T07:58:58.919Z,95.80
2019-02-02T08:01:29.050Z,95.80
2019-02-02T08:03:59.263Z,95.80
2019-02-02T08:06:29.689Z,95.80
2019-02-02T08:09:00.078Z,95.80
2019-02-02T08:11:30.469Z,95.80
2019-02-02T08:14:00.479Z,95.80
2019-02-02T08:16:30.386Z,95.80
2019-02-02T08:19:01.807Z,95.80
2019-02-02T08:21:33.530Z,95.70
2019-02-02T08:24:03.896Z,96.10
2019-02-02T08:26:35.607Z,96.40
2019-02-02T08:29:05.795Z,96.40
2019-02-02T08:31:35.829Z,96.50
2019-02-02T08:34:06.012Z,96.20
2019-02-02T08:36:36.042Z,96.00
2019-02-02T08:39:08.923Z,95.30
2019-02-02T08:41:39.079Z,95.00
2019-02-02T08:44:09.204Z,94.50
2019-02-02T08:46:39.473Z,94.50
2019-02-02T08:49:09.546Z,94.50
2019-02-02T08:51:40.033Z,94.30
2019-02-02T08:54:12.917Z,94.20
2019-02-02T08:56:43.241Z,94.20
2019-02-02T08:59:14.695Z,94.20
2019-02-02T09:01:48.012Z,94.10
2019-02-02T09:04:17.071Z,94.10
2019-02-02T09:06:47.393Z,94.50
2019-02-02T09:09:18.221Z,94.70
2019-02-02T09:11:48.842Z,94.70
2019-02-02T09:14:22.928Z,94.80
2019-02-02T09:16:56.152Z,94.80
2019-02-02T09:19:26.898Z,94.30
2019-02-02T09:21:57.587Z,94.30
2019-02-02T09:24:28.382Z,94.30
2019-02-02T09:26:59.244Z,94.00
2019-02-02T09:29:30.369Z,93.70
2019-02-02T09:32:00.674Z,93.70
2019-02-02T09:34:32.025Z,93.10
2019-02-02T09:37:02.610Z,92.80
2019-02-02T09:39:32.987Z,92.60
2019-02-02T09:42:05.710Z,92.60
2019-02-02T09:44:47.952Z,92.20
2019-02-02T09:47:20.256Z,92.20
2019-02-02T09:49:50.313Z,92.00
2019-02-02T09:52:20.333Z,91.90
2019-02-02T09:57:36.998Z,91.90
2019-02-02T10:00:20.668Z,92.00
2019-02-02T10:02:51.017Z,91.90
2019-02-02T10:05:22.440Z,91.80
2019-02-02T10:07:53.250Z,91.90
2019-02-02T10:10:26.318Z,92.00
2019-02-02T10:12:56.688Z,92.10
2019-02-02T10:15:27.258Z,92.20
2019-02-02T10:17:57.732Z,92.10
2019-02-02T10:20:29.966Z,92.20
2019-02-02T10:23:00.905Z,92.20
2019-02-02T10:25:31.614Z,92.30
2019-02-02T10:28:02.027Z,92.10
2019-02-02T10:30:35.575Z,92.10
2019-02-02T10:33:06.616Z,91.90
2019-02-02T10:35:36.649Z,91.70
2019-02-02T10:38:06.736Z,91.60
2019-02-02T10:40:37.160Z,91.00
2019-02-02T10:43:10.431Z,91.00
2019-02-02T10:45:40.562Z,91.00
2019-02-02T10:48:10.814Z,91.30
2019-02-02T10:50:43.424Z,90.90
2019-02-02T10:53:13.508Z,91.00
2019-02-02T10:55:43.624Z,91.00
2019-02-02T10:58:13.545Z,90.90
2019-02-02T11:01:04.902Z,90.50
2019-02-02T11:03:54.934Z,90.10
2019-02-02T11:06:45.306Z,89.40
2019-02-02T11:09:34.914Z,88.70
2019-02-02T11:12:05.340Z,87.60
2019-02-02T11:14:55.068Z,86.40
2019-02-02T11:17:45.282Z,82.60
2019-02-02T11:20:40.008Z,83.00
2019-02-02T11:23:13.183Z,83.80
2019-02-02T11:25:43.729Z,83.20
2019-02-02T11:28:15.615Z,82.80
2019-02-02T11:31:25.398Z,80.80
2019-02-02T11:34:09.854Z,79.90
2019-02-02T11:36:59.546Z,80.90
2019-02-02T11:39:29.732Z,80.40
2019-02-02T11:42:03.991Z,80.50
2019-02-02T11:44:34.223Z,79.70
2019-02-02T11:47:04.442Z,77.50
2019-02-02T11:49:34.403Z,78.40
2019-02-02T11:52:23.997Z,78.60
2019-02-02T11:55:14.585Z,78.50
2019-02-02T11:58:04.544Z,78.90
2019-02-02T12:00:53.948Z,80.20
2019-02-02T12:03:43.587Z,80.40
2019-02-02T12:06:33.098Z,78.90
2019-02-02T12:09:22.785Z,79.60
2019-02-02T12:11:52.893Z,80.80
2019-02-02T12:14:23.178Z,80.90
2019-02-02T12:16:52.995Z,79.10
2019-02-02T12:19:39.692Z,78.90
2019-02-02T12:22:15.195Z,78.10
2019-02-02T12:24:48.168Z,77.20
2019-02-02T12:27:18.313Z,75.40
2019-02-02T12:29:48.344Z,74.60
2019-02-02T12:35:38.920Z,73.90
2019-02-02T12:38:09.472Z,72.10
2019-02-02T12:40:40.544Z,72.10
2019-02-02T12:43:11.856Z,72.10
2019-02-02T12:45:48.728Z,72.20
2019-02-02T12:48:19.029Z,71.30
2019-02-02T12:51:11.083Z,72.20
2019-02-02T12:54:01.265Z,72.10
2019-02-02T12:56:31.390Z,72.10
2019-02-02T12:59:02.266Z,72.10
2019-02-02T13:01:33.015Z,72.10
2019-02-02T13:07:18.225Z,72.90
2019-02-02T13:09:48.486Z,73.30
2019-02-02T13:12:38.792Z,72.50
2019-02-02T13:15:28.771Z,72.60
2019-02-02T13:17:59.151Z,72.40
2019-02-02T13:20:29.526Z,73.10
2019-02-02T13:23:00.598Z,72.50
2019-02-02T13:25:31.548Z,73.80
2019-02-02T13:28:21.103Z,73.20
2019-02-02T13:31:10.642Z,72.30
2019-02-02T13:34:00.266Z,71.60
2019-02-02T13:36:50.090Z,71.40
2019-02-02T13:39:20.124Z,72.30
2019-02-02T13:42:09.785Z,72.90
2019-02-02T13:44:59.381Z,72.70
2019-02-02T13:47:29.338Z,74.60
2019-02-02T13:50:19.055Z,72.30
2019-02-02T13:55:50.788Z,72.30
2019-02-02T13:58:21.213Z,72.20
2019-02-02T14:00:51.607Z,73.30
2019-02-02T14:03:21.573Z,73.70
2019-02-02T14:06:11.099Z,73.30
2019-02-02T14:09:00.919Z,72.30
2019-02-02T14:11:31.398Z,72.20
2019-02-02T14:14:01.809Z,71.40
2019-02-02T14:16:32.397Z,71.10
2019-02-02T14:19:21.839Z,70.90
2019-02-02T14:22:11.894Z,72.00
2019-02-02T14:25:02.190Z,71.80
2019-02-02T14:27:32.548Z,72.20
2019-02-02T14:30:28.132Z,72.10
2019-02-02T14:32:58.242Z,72.10
2019-02-02T14:35:28.612Z,74.30
2019-02-02T14:38:00.958Z,75.20
2019-02-02T14:40:31.923Z,76.20
2019-02-02T14:43:02.071Z,76.50
2019-02-02T14:45:32.162Z,76.30
2019-02-02T14:48:06.226Z,74.80
2019-02-02T14:53:54.300Z,74.60
2019-02-02T14:56:47.791Z,72.50
2019-02-02T14:59:16.517Z,72.50
2019-02-02T15:02:05.048Z,72.20
2019-02-02T15:04:54.891Z,73.50
2019-02-02T15:07:44.990Z,74.10
2019-02-02T15:10:15.919Z,74.50
2019-02-02T15:12:45.863Z,75.70
2019-02-02T15:15:16.252Z,78.00
2019-02-02T15:17:47.135Z,78.80
2019-02-02T15:20:37.665Z,78.90
2019-02-02T15:23:08.164Z,79.30
2019-02-02T15:25:38.671Z,80.30
2019-02-02T15:28:29.388Z,80.20
2019-02-02T15:31:20.173Z,81.30
2019-02-02T15:33:53.590Z,82.00
2019-02-02T15:36:24.701Z,82.60
2019-02-02T15:38:55.160Z,82.40
2019-02-02T15:41:25.525Z,82.80
2019-02-02T15:43:56.451Z,82.80
2019-02-02T15:46:26.575Z,83.00
2019-02-02T15:49:16.469Z,83.10
2019-02-02T15:52:06.474Z,82.20
2019-02-02T15:54:55.943Z,83.10
2019-02-02T15:57:45.338Z,83.10
2019-02-02T16:00:38.395Z,82.90
2019-02-02T16:03:09.048Z,82.60
2019-02-02T16:05:39.939Z,83.00
2019-02-02T16:08:14.595Z,83.60
2019-02-02T16:14:04.113Z,83.50
2019-02-02T16:16:34.588Z,83.30
2019-02-02T16:19:06.463Z,84.40
2019-02-02T16:25:13.248Z,84.40
2019-02-02T16:28:09.052Z,84.50
2019-02-02T16:40:56.922Z,85.60
2019-02-02T16:43:38.078Z,87.10
2019-02-02T17:00:36.826Z,87.50
2019-02-02T17:03:08.704Z,87.60
2019-02-02T17:15:12.307Z,88.90
2019-02-02T17:18:21.331Z,90.00
2019-02-02T17:23:33.101Z,90.30
2019-02-02T17:52:14.443Z,91.90
2019-02-02T17:57:45.840Z,92.30
2019-02-02T18:00:43.170Z,92.60
2019-02-02T18:04:43.344Z,92.60
2019-02-02T18:10:51.576Z,92.50
2019-02-02T18:29:47.061Z,93.10
2019-02-02T18:32:37.040Z,93.10
2019-02-02T18:35:07.389Z,93.10
2019-02-02T18:37:37.338Z,93.40
2019-02-02T18:40:08.943Z,93.40
2019-02-02T18:42:58.679Z,93.40
2019-02-02T18:45:29.357Z,93.20
2019-02-02T18:48:24.567Z,93.10
2019-02-02T18:51:14.239Z,93.10
2019-02-02T18:53:44.456Z,93.10
2019-02-02T18:56:34.086Z,92.50
2019-02-02T18:59:04.685Z,92.30
2019-02-02T19:01:55.035Z,92.40
2019-02-02T19:04:46.442Z,92.30
2019-02-02T19:07:36.113Z,91.70
2019-02-02T19:10:21.201Z,91.80
2019-02-02T19:13:11.228Z,89.20
2019-02-02T19:16:01.082Z,88.00
2019-02-02T19:45:28.438Z,85.90
2019-02-02T20:08:44.531Z,88.30
2019-02-02T20:14:44.160Z,87.40
2019-02-02T20:17:17.726Z,86.30
2019-02-02T20:19:54.396Z,86.20
2019-02-02T20:22:44.605Z,86.70
2019-02-02T20:27:56.069Z,87.10
2019-02-02T20:30:33.645Z,87.10
2019-02-02T20:39:07.965Z,88.50
2019-02-02T20:44:42.983Z,87.00
2019-02-02T20:47:13.476Z,86.80
2019-02-02T20:52:46.676Z,86.10
2019-02-02T20:55:49.273Z,86.30
2019-02-02T20:58:40.956Z,86.10
2019-02-02T21:01:21.049Z,86.80
2019-02-02T21:03:51.773Z,87.20
2019-02-02T21:06:41.561Z,87.60
2019-02-02T21:12:27.011Z,87.40
2019-02-02T21:18:01.678Z,88.00
2019-02-02T21:21:14.156Z,88.20
2019-02-02T21:24:12.509Z,88.50
2019-02-02T21:26:47.209Z,89.30
2019-02-02T21:29:22.313Z,89.30
2019-02-02T21:31:53.379Z,89.80
2019-02-02T21:34:23.913Z,90.10
2019-02-02T21:37:10.937Z,90.00
2019-02-02T21:39:40.911Z,90.30
2019-02-02T21:42:11.304Z,90.30
2019-02-02T21:44:43.147Z,90.30
2019-02-02T21:47:51.639Z,90.60
2019-02-02T21:50:23.595Z,90.90
2019-02-02T21:53:14.127Z,90.90
2019-02-02T21:55:44.369Z,90.60
2019-02-02T21:58:34.092Z,90.50
2019-02-02T22:01:24.479Z,90.40
2019-02-02T22:03:56.420Z,90.50
2019-02-02T22:06:26.601Z,90.80
2019-02-02T22:08:56.785Z,90.80
2019-02-02T22:11:27.123Z,90.90
2019-02-02T22:13:57.046Z,91.00
2019-02-02T22:16:27.077Z,91.10
2019-02-02T22:18:57.059Z,91.10
2019-02-02T22:21:27.109Z,90.80
2019-02-02T22:24:16.905Z,90.90
2019-02-02T22:26:46.938Z,91.00
2019-02-02T22:29:36.637Z,91.00
2019-02-02T22:32:07.512Z,91.00
2019-02-02T22:34:58.992Z,91.00
2019-02-02T22:37:47.189Z,91.00
2019-02-02T22:40:37.742Z,91.20
2019-02-02T22:43:27.217Z,91.60
2019-02-02T22:46:58.019Z,91.90
2019-02-02T22:49:28.490Z,92.10
2019-02-02T22:52:00.053Z,92.20
2019-02-02T22:54:49.539Z,92.20
2019-02-02T22:57:20.333Z,91.70
2019-02-02T22:59:50.963Z,91.90
2019-02-02T23:02:22.997Z,92.10
2019-02-02T23:05:23.629Z,92.20
2019-02-02T23:15:06.359Z,91.60
2019-02-02T23:17:56.462Z,91.60
2019-02-02T23:20:27.005Z,91.30
2019-02-02T23:23:38.555Z,91.30
2019-02-02T23:26:28.502Z,91.70
2019-02-02T23:29:19.685Z,92.00
2019-02-02T23:32:09.772Z,92.20
2019-02-02T23:40:32.518Z,91.50
2019-02-02T23:43:09.425Z,91.50
2019-02-02T23:45:40.269Z,91.90
2019-02-02T23:48:10.613Z,92.10
2019-02-02T23:53:25.519Z,92.00
2019-02-02T23:55:55.912Z,92.10
2019-02-02T23:58:33.692Z,91.90
